Time;durP1;ratioP1;P1;durP2;ratioP2;P2;SDS_P1;SDS_P2;PMS_P1;PMS_P2;Temp;Humidity;BMP_temperature;BMP_pressure;BME280_temperature;BME280_humidity;BME280_pressure;Samples;Min_cycle;Max_cycle;Signal;HPM_P1;HPM_P2
2023/04/05 00:01:29;;;;;;;6.23;4.33;;;;;;;;;;5041044;28;20465;-96
2023/04/05 00:03:56;;;;;;;6.23;4.23;;;;;;;;;;5025181;28;20449;-95
2023/04/05 00:06:27;;;;;;;6.13;5.00;;;;;;;;;;5020561;28;20454;-93
2023/04/05 00:09:03;;;;;;;12.13;4.57;;;;;;;;;;5008121;28;20442;-92
2023/04/05 00:11:30;;;;;;;5.60;4.40;;;;;;;;;;5041930;28;20469;-95
2023/04/05 00:13:56;;;;;;;7.20;4.57;;;;;;;;;;5041576;28;20466;-92
2023/04/05 00:16:25;;;;;;;6.90;4.63;;;;;;;;;;5024774;28;20458;-92
2023/04/05 00:18:51;;;;;;;7.03;4.80;;;;;;;;;;5026646;28;20434;-94
2023/04/05 00:21:22;;;;;;;5.43;4.53;;;;;;;;;;5023540;28;20422;-89
2023/04/05 00:23:50;;;;;;;5.57;5.07;;;;;;;;;;5031308;28;20434;-89
2023/04/05 00:26:16;;;;;;;5.00;4.07;;;;;;;;;;5021399;28;20948;-90
2023/04/05 00:28:42;;;;;;;4.87;3.93;;;;;;;;;;5021614;28;21109;-89
2023/04/05 00:31:09;;;;;;;5.30;4.30;;;;;;;;;;5025338;28;20462;-90
2023/04/05 00:33:35;;;;;;;5.13;3.97;;;;;;;;;;5017696;28;20418;-89
2023/04/05 00:36:12;;;;;;;4.50;4.03;;;;;;;;;;5022621;28;20936;-89
2023/04/05 00:38:38;;;;;;;7.90;4.60;;;;;;;;;;5020444;28;20430;-90
2023/04/05 00:41:04;;;;;;;4.53;3.93;;;;;;;;;;5012015;28;20906;-89
2023/04/05 00:43:30;;;;;;;5.10;3.80;;;;;;;;;;5022185;28;20970;-90
2023/04/05 00:45:56;;;;;;;6.30;4.00;;;;;;;;;;5019776;28;20441;-88
2023/04/05 00:48:23;;;;;;;11.37;6.07;;;;;;;;;;5019003;28;20430;-90
2023/04/05 00:50:49;;;;;;;20.30;9.40;;;;;;;;;;5016720;28;20470;-90
2023/04/05 00:53:18;;;;;;;22.23;12.87;;;;;;;;;;5020850;28;20933;-90
2023/04/05 00:55:46;;;;;;;21.77;12.27;;;;;;;;;;5036861;28;20437;-87
2023/04/05 00:58:12;;;;;;;23.50;12.73;;;;;;;;;;5022921;28;20430;-88
2023/04/05 01:00:38;;;;;;;20.30;12.00;;;;;;;;;;5018075;28;20434;-88
2023/04/05 01:03:04;;;;;;;23.87;10.97;;;;;;;;;;5022037;28;20422;-90
2023/04/05 01:05:35;;;;;;;15.57;9.80;;;;;;;;;;5035849;28;20440;-88
2023/04/05 01:08:13;;;;;;;13.30;9.90;;;;;;;;;;4996590;28;20424;-89
2023/04/05 01:10:39;;;;;;;16.93;10.97;;;;;;;;;;5016954;28;20970;-88
2023/04/05 01:13:05;;;;;;;16.10;10.50;;;;;;;;;;5001205;28;20440;-88
2023/04/05 01:15:31;;;;;;;12.80;8.83;;;;;;;;;;4998378;28;20464;-88
2023/04/05 01:18:00;;;;;;;9.40;7.23;;;;;;;;;;4987252;28;20429;-88
2023/04/05 01:20:27;;;;;;;8.37;6.93;;;;;;;;;;4996046;28;20436;-90
2023/04/05 01:23:08;;;;;;;10.27;8.20;;;;;;;;;;4993630;28;20538;-88
2023/04/05 01:25:40;;;;;;;9.13;7.73;;;;;;;;;;4983031;28;20440;-89
2023/04/05 01:28:06;;;;;;;10.37;9.23;;;;;;;;;;5012937;28;20471;-87
2023/04/05 01:30:34;;;;;;;9.30;7.07;;;;;;;;;;4993459;28;20611;-90
2023/04/05 01:33:10;;;;;;;8.67;6.90;;;;;;;;;;4986427;28;20432;-90
2023/04/05 01:35:39;;;;;;;10.90;8.47;;;;;;;;;;4980754;28;20417;-88
2023/04/05 01:38:06;;;;;;;10.40;6.37;;;;;;;;;;4997453;28;20463;-90
2023/04/05 01:40:32;;;;;;;8.97;6.13;;;;;;;;;;4978708;28;20422;-88
2023/04/05 01:43:01;;;;;;;7.00;5.90;;;;;;;;;;4977741;28;20436;-88
2023/04/05 01:45:27;;;;;;;8.17;5.80;;;;;;;;;;4979818;28;20456;-87
2023/04/05 01:47:53;;;;;;;7.67;4.40;;;;;;;;;;4983524;28;20433;-88
2023/04/05 01:50:19;;;;;;;5.47;4.87;;;;;;;;;;4983339;28;20997;-90
2023/04/05 01:52:45;;;;;;;4.53;4.10;;;;;;;;;;4980288;28;20521;-88
2023/04/05 01:55:11;;;;;;;13.43;5.57;;;;;;;;;;4970386;28;20501;-88
2023/04/05 01:57:38;;;;;;;9.83;4.50;;;;;;;;;;4967235;28;20429;-89
2023/04/05 02:00:04;;;;;;;7.70;5.30;;;;;;;;;;4965172;28;20425;-90
2023/04/05 02:02:30;;;;;;;5.10;4.63;;;;;;;;;;4981601;28;21103;-90
2023/04/05 02:04:56;;;;;;;6.53;4.50;;;;;;;;;;4965922;28;20452;-89
2023/04/05 02:07:23;;;;;;;8.23;4.80;;;;;;;;;;4993123;28;20944;-90
2023/04/05 02:09:49;;;;;;;5.87;4.33;;;;;;;;;;5007588;28;20486;-90
2023/04/05 02:12:15;;;;;;;5.90;4.97;;;;;;;;;;4997776;28;20551;-90
2023/04/05 02:14:41;;;;;;;6.93;5.10;;;;;;;;;;4993739;28;20452;-90
2023/04/05 02:17:07;;;;;;;5.37;4.87;;;;;;;;;;5000104;28;20435;-89
2023/04/05 02:19:41;;;;;;;5.73;5.20;;;;;;;;;;4981667;28;20455;-89
2023/04/05 02:22:07;;;;;;;4.80;4.30;;;;;;;;;;4996216;28;20443;-89
2023/04/05 02:24:34;;;;;;;4.87;4.23;;;;;;;;;;4995167;28;20432;-90
2023/04/05 02:27:00;;;;;;;7.10;4.27;;;;;;;;;;4996281;28;20459;-89
2023/04/05 02:29:26;;;;;;;6.80;4.30;;;;;;;;;;4996606;28;20868;-89
2023/04/05 02:31:52;;;;;;;6.00;5.00;;;;;;;;;;5029149;28;20470;-88
2023/04/05 02:34:18;;;;;;;8.43;4.67;;;;;;;;;;5019999;28;20972;-90
2023/04/05 02:36:44;;;;;;;5.77;4.50;;;;;;;;;;5008956;28;20423;-90
2023/04/05 02:39:10;;;;;;;6.00;4.80;;;;;;;;;;5036939;28;20476;-87
2023/04/05 02:41:36;;;;;;;5.07;4.10;;;;;;;;;;5021593;28;20449;-90
2023/04/05 02:44:02;;;;;;;6.97;4.80;;;;;;;;;;5038981;28;20907;-89
2023/04/05 02:46:28;;;;;;;6.13;4.33;;;;;;;;;;5023319;28;20486;-90
2023/04/05 02:48:54;;;;;;;4.90;4.50;;;;;;;;;;5026800;28;20513;-90
2023/04/05 02:51:20;;;;;;;4.87;4.27;;;;;;;;;;5018031;28;20546;-87
2023/04/05 02:53:47;;;;;;;4.90;4.10;;;;;;;;;;5021885;28;20787;-90
2023/04/05 02:56:13;;;;;;;6.03;5.40;;;;;;;;;;5040188;28;20414;-89
2023/04/05 02:58:39;;;;;;;7.70;4.90;;;;;;;;;;5009728;28;20810;-90
2023/04/05 03:01:06;;;;;;;8.47;5.97;;;;;;;;;;5019208;28;20963;-90
2023/04/05 03:03:33;;;;;;;4.23;3.83;;;;;;;;;;5012565;28;20419;-91
2023/04/05 03:06:00;;;;;;;5.90;4.33;;;;;;;;;;5025225;28;20435;-90
2023/04/05 03:08:27;;;;;;;5.80;5.20;;;;;;;;;;5030726;28;20441;-89
2023/04/05 03:10:53;;;;;;;5.67;4.60;;;;;;;;;;5027532;28;20461;-90
2023/04/05 03:13:19;;;;;;;12.40;4.30;;;;;;;;;;5013309;28;20426;-89
2023/04/05 03:15:45;;;;;;;9.20;4.93;;;;;;;;;;5020173;28;20515;-90
2023/04/05 03:18:11;;;;;;;4.50;4.10;;;;;;;;;;5019404;28;20942;-90
2023/04/05 03:20:38;;;;;;;5.17;4.67;;;;;;;;;;5039340;28;20434;-90
2023/04/05 03:23:06;;;;;;;5.33;4.30;;;;;;;;;;5019522;28;20469;-85
2023/04/05 03:25:37;;;;;;;7.97;3.83;;;;;;;;;;5023594;28;20960;-89
2023/04/05 03:28:04;;;;;;;6.90;4.90;;;;;;;;;;5039775;28;20430;-87
2023/04/05 03:30:31;;;;;;;6.10;4.57;;;;;;;;;;5040236;28;20462;-90
2023/04/05 03:33:00;;;;;;;8.13;5.20;;;;;;;;;;5016973;28;20438;-87
2023/04/05 03:35:26;;;;;;;5.37;4.43;;;;;;;;;;5024173;28;20437;-88
2023/04/05 03:37:52;;;;;;;6.43;4.57;;;;;;;;;;5016640;28;20957;-88
2023/04/05 03:40:18;;;;;;;6.07;4.40;;;;;;;;;;5023996;28;20434;-88
2023/04/05 03:42:45;;;;;;;5.80;4.80;;;;;;;;;;5024724;28;20442;-88
2023/04/05 03:45:11;;;;;;;10.20;4.50;;;;;;;;;;5021588;28;20442;-88
2023/04/05 03:47:37;;;;;;;5.93;4.30;;;;;;;;;;5023054;28;20442;-86
2023/04/05 03:50:03;;;;;;;6.87;4.30;;;;;;;;;;5019279;28;20430;-90
2023/04/05 03:52:29;;;;;;;9.70;5.20;;;;;;;;;;5020749;28;20434;-90
2023/04/05 03:54:55;;;;;;;5.30;4.03;;;;;;;;;;5022315;28;20442;-89
2023/04/05 03:57:21;;;;;;;5.77;4.63;;;;;;;;;;5022270;28;20450;-88
2023/04/05 03:59:47;;;;;;;10.30;5.30;;;;;;;;;;5021420;28;20821;-91
2023/04/05 04:02:13;;;;;;;4.57;4.20;;;;;;;;;;5022627;28;20438;-87
2023/04/05 04:04:39;;;;;;;8.00;4.77;;;;;;;;;;5016994;28;20960;-89
2023/04/05 04:07:05;;;;;;;8.80;3.80;;;;;;;;;;5018739;28;20427;-89
2023/04/05 04:09:31;;;;;;;6.10;4.73;;;;;;;;;;5019924;28;20468;-87
2023/04/05 04:11:58;;;;;;;5.03;3.90;;;;;;;;;;5027478;28;20466;-86
2023/04/05 04:14:24;;;;;;;9.47;4.67;;;;;;;;;;5032763;28;20541;-89
2023/04/05 04:16:50;;;;;;;5.47;4.67;;;;;;;;;;5024138;28;20441;-89
2023/04/05 04:19:17;;;;;;;7.97;4.40;;;;;;;;;;5030728;28;20434;-89
2023/04/05 04:21:49;;;;;;;5.27;4.77;;;;;;;;;;5018093;28;20438;-90
2023/04/05 04:24:17;;;;;;;6.67;4.37;;;;;;;;;;5018144;28;20533;-89
2023/04/05 04:26:46;;;;;;;10.43;5.37;;;;;;;;;;5015672;28;20443;-89
2023/04/05 04:29:15;;;;;;;6.73;4.33;;;;;;;;;;5019619;28;20451;-88
2023/04/05 04:31:44;;;;;;;5.63;4.67;;;;;;;;;;5037927;28;20488;-89
2023/04/05 04:34:13;;;;;;;5.53;4.33;;;;;;;;;;5020466;28;20529;-89
2023/04/05 04:36:41;;;;;;;7.23;4.87;;;;;;;;;;5011393;28;20465;-90
2023/04/05 04:39:09;;;;;;;6.20;4.50;;;;;;;;;;5022654;28;20829;-90
2023/04/05 04:41:35;;;;;;;7.63;4.23;;;;;;;;;;5020593;28;20952;-89
2023/04/05 04:44:04;;;;;;;6.10;5.07;;;;;;;;;;5014220;28;20486;-90
2023/04/05 04:46:41;;;;;;;7.47;5.30;;;;;;;;;;5018954;28;20443;-90
2023/04/05 04:49:07;;;;;;;5.23;4.73;;;;;;;;;;5021671;28;20852;-90
2023/04/05 04:51:33;;;;;;;6.37;5.27;;;;;;;;;;5014327;28;20534;-90
2023/04/05 04:53:59;;;;;;;5.27;4.40;;;;;;;;;;5022427;28;20434;-90
2023/04/05 04:56:25;;;;;;;8.47;5.23;;;;;;;;;;5020296;28;20516;-90
2023/04/05 04:58:55;;;;;;;5.50;3.90;;;;;;;;;;5023778;28;20789;-90
2023/04/05 05:01:23;;;;;;;7.23;5.97;;;;;;;;;;5033054;28;20512;-91
2023/04/05 05:03:52;;;;;;;6.43;4.50;;;;;;;;;;5018551;28;20490;-89
2023/04/05 05:06:20;;;;;;;10.00;5.20;;;;;;;;;;5018002;28;20442;-90
2023/04/05 05:08:46;;;;;;;6.63;4.63;;;;;;;;;;5023967;28;20442;-89
2023/04/05 05:11:12;;;;;;;7.07;5.57;;;;;;;;;;5016442;28;20466;-88
2023/04/05 05:13:40;;;;;;;8.80;5.17;;;;;;;;;;5020111;28;20450;-89
2023/04/05 05:16:10;;;;;;;8.77;5.47;;;;;;;;;;5039855;28;20430;-89
2023/04/05 05:18:40;;;;;;;7.10;4.50;;;;;;;;;;5019320;28;20435;-90
2023/04/05 05:21:06;;;;;;;5.40;4.47;;;;;;;;;;5032421;28;20450;-91
2023/04/05 05:23:32;;;;;;;8.33;4.67;;;;;;;;;;5001962;28;20501;-90
2023/04/05 05:25:59;;;;;;;7.77;4.57;;;;;;;;;;5004125;28;20455;-88
2023/04/05 05:28:26;;;;;;;6.40;4.80;;;;;;;;;;4992380;28;20462;-87
2023/04/05 05:30:52;;;;;;;8.67;5.17;;;;;;;;;;5003220;28;20512;-89
2023/04/05 05:33:18;;;;;;;11.00;5.40;;;;;;;;;;4995668;28;20820;-88
2023/04/05 05:35:47;;;;;;;7.63;5.20;;;;;;;;;;5003520;28;20867;-91
2023/04/05 05:38:13;;;;;;;9.27;5.83;;;;;;;;;;5030816;28;20956;-90
2023/04/05 05:40:39;;;;;;;7.13;5.10;;;;;;;;;;5015822;28;20552;-89
2023/04/05 05:43:05;;;;;;;7.00;5.50;;;;;;;;;;5006277;28;20431;-90
2023/04/05 05:45:32;;;;;;;6.60;4.93;;;;;;;;;;5003641;28;20475;-89
2023/04/05 05:47:58;;;;;;;6.00;5.40;;;;;;;;;;4952910;28;20541;-88
2023/04/05 05:50:23;;;;;;;7.60;5.30;;;;;;;;;;4941225;28;20473;-90
2023/04/05 05:52:50;;;;;;;8.30;5.47;;;;;;;;;;4975564;28;20444;-89
2023/04/05 05:55:17;;;;;;;6.73;4.47;;;;;;;;;;4978657;28;20929;-90
2023/04/05 05:57:44;;;;;;;6.53;5.10;;;;;;;;;;4981905;28;20514;-90
2023/04/05 06:00:10;;;;;;;5.90;4.00;;;;;;;;;;4980901;28;21108;-90
2023/04/05 06:02:36;;;;;;;9.83;4.90;;;;;;;;;;4941494;29;20432;-90
2023/04/05 06:05:02;;;;;;;7.10;6.40;;;;;;;;;;4923556;29;20431;-90
2023/04/05 06:07:28;;;;;;;6.53;4.50;;;;;;;;;;4925038;29;20445;-90
2023/04/05 06:09:54;;;;;;;6.70;5.53;;;;;;;;;;4922149;29;21031;-89
2023/04/05 06:12:23;;;;;;;6.03;5.17;;;;;;;;;;4922039;29;20473;-90
2023/04/05 06:14:49;;;;;;;8.80;6.03;;;;;;;;;;4905278;29;20615;-89
2023/04/05 06:17:15;;;;;;;7.53;6.07;;;;;;;;;;4924021;29;20899;-87
2023/04/05 06:19:41;;;;;;;7.40;5.53;;;;;;;;;;4922163;29;20686;-90
2023/04/05 06:22:07;;;;;;;8.57;5.60;;;;;;;;;;4920531;29;20448;-91
2023/04/05 06:24:33;;;;;;;7.90;6.20;;;;;;;;;;4928076;29;20539;-90
2023/04/05 06:27:00;;;;;;;10.30;6.80;;;;;;;;;;4948245;29;20523;-90
2023/04/05 06:29:26;;;;;;;13.47;6.77;;;;;;;;;;4906383;29;20556;-90
2023/04/05 06:31:53;;;;;;;7.50;5.73;;;;;;;;;;4889324;29;20457;-90
2023/04/05 06:34:20;;;;;;;12.17;6.80;;;;;;;;;;4927220;28;20430;-90
2023/04/05 06:36:46;;;;;;;7.93;6.97;;;;;;;;;;4922747;29;20477;-90
2023/04/05 06:39:13;;;;;;;9.10;5.93;;;;;;;;;;4933745;29;21174;-87
2023/04/05 06:41:39;;;;;;;7.77;6.33;;;;;;;;;;4988297;28;20994;-87
2023/04/05 06:44:05;;;;;;;9.40;5.80;;;;;;;;;;4982850;28;20524;-88
2023/04/05 06:46:31;;;;;;;6.90;5.80;;;;;;;;;;4963902;28;21077;-89
2023/04/05 06:48:57;;;;;;;9.47;6.70;;;;;;;;;;4969872;28;20488;-88
2023/04/05 06:51:25;;;;;;;8.93;7.30;;;;;;;;;;4971210;28;20469;-88
2023/04/05 06:53:51;;;;;;;10.87;6.10;;;;;;;;;;4964757;28;20465;-91
2023/04/05 06:56:17;;;;;;;9.50;6.17;;;;;;;;;;4968473;28;20441;-91
2023/04/05 06:58:43;;;;;;;8.83;6.60;;;;;;;;;;4965324;28;20460;-89
2023/04/05 07:01:10;;;;;;;12.80;6.63;;;;;;;;;;5011311;28;20438;-91
2023/04/05 07:03:36;;;;;;;11.53;6.13;;;;;;;;;;5049813;28;20537;-92
2023/04/05 07:06:03;;;;;;;7.93;5.63;;;;;;;;;;5024626;28;20467;-90
2023/04/05 07:08:31;;;;;;;8.80;5.93;;;;;;;;;;5024094;28;20427;-91
2023/04/05 07:10:57;;;;;;;11.20;6.00;;;;;;;;;;5032221;28;20442;-92
2023/04/05 07:13:23;;;;;;;8.37;6.20;;;;;;;;;;5022842;28;20438;-91
2023/04/05 07:15:50;;;;;;;9.43;5.57;;;;;;;;;;5023793;28;20440;-90
2023/04/05 07:18:16;;;;;;;9.50;5.43;;;;;;;;;;5022433;28;20487;-91
2023/04/05 07:20:42;;;;;;;8.03;6.00;;;;;;;;;;5025021;28;20430;-91
2023/04/05 07:23:08;;;;;;;7.30;5.90;;;;;;;;;;5017187;28;20455;-91
2023/04/05 07:25:40;;;;;;;6.50;5.27;;;;;;;;;;5091134;23;20573;-90
2023/04/05 07:28:06;;;;;;;8.53;6.50;;;;;;;;;;5015597;28;20502;-91
2023/04/05 07:30:32;;;;;;;7.00;5.63;;;;;;;;;;5027904;28;20455;-91
2023/04/05 07:32:58;;;;;;;10.57;6.53;;;;;;;;;;5041450;28;20414;-91
2023/04/05 07:35:24;;;;;;;7.97;6.57;;;;;;;;;;5051965;23;20540;-88
2023/04/05 07:37:51;;;;;;;7.17;6.47;;;;;;;;;;5042066;28;20435;-88
2023/04/05 07:40:17;;;;;;;6.80;5.83;;;;;;;;;;5031583;28;20424;-89
2023/04/05 07:42:43;;;;;;;9.50;6.03;;;;;;;;;;5043188;28;20427;-89
2023/04/05 07:45:09;;;;;;;6.30;5.63;;;;;;;;;;5026637;28;20449;-90
2023/04/05 07:47:35;;;;;;;9.50;6.83;;;;;;;;;;5002782;28;20421;-88
2023/04/05 07:50:01;;;;;;;6.30;5.70;;;;;;;;;;5028486;28;20435;-89
2023/04/05 07:52:27;;;;;;;8.30;6.47;;;;;;;;;;5002353;28;20407;-88
2023/04/05 07:54:54;;;;;;;8.17;5.50;;;;;;;;;;5009940;28;20428;-87
2023/04/05 07:57:20;;;;;;;9.00;5.80;;;;;;;;;;5013292;28;20434;-86
2023/04/05 07:59:49;;;;;;;12.80;5.40;;;;;;;;;;5003128;28;20417;-86
2023/04/05 08:02:15;;;;;;;6.37;5.77;;;;;;;;;;5026757;28;20634;-88
2023/04/05 08:04:41;;;;;;;7.60;6.33;;;;;;;;;;5024039;28;20467;-85
2023/04/05 08:07:07;;;;;;;7.33;6.07;;;;;;;;;;5034034;28;20427;-88
2023/04/05 08:09:33;;;;;;;6.40;5.43;;;;;;;;;;5023778;28;20529;-87
2023/04/05 08:12:00;;;;;;;10.70;5.80;;;;;;;;;;5020494;28;20449;-87
2023/04/05 08:14:26;;;;;;;7.40;6.70;;;;;;;;;;5015471;28;20439;-88
2023/04/05 08:16:52;;;;;;;7.37;6.27;;;;;;;;;;5029848;28;20423;-88
2023/04/05 08:19:18;;;;;;;8.80;5.93;;;;;;;;;;5018948;28;20454;-89
2023/04/05 08:21:44;;;;;;;11.97;6.97;;;;;;;;;;5003357;28;20428;-89
2023/04/05 08:24:10;;;;;;;9.67;6.33;;;;;;;;;;5017141;28;20420;-89
2023/04/05 08:26:36;;;;;;;10.00;6.20;;;;;;;;;;5014606;28;20440;-89
2023/04/05 08:29:02;;;;;;;7.40;6.10;;;;;;;;;;5009410;28;20493;-89
2023/04/05 08:31:28;;;;;;;6.13;5.50;;;;;;;;;;5027261;28;20459;-89
2023/04/05 08:33:54;;;;;;;8.33;6.30;;;;;;;;;;5024292;28;20424;-88
2023/04/05 08:36:20;;;;;;;7.37;5.90;;;;;;;;;;5031491;28;20594;-89
2023/04/05 08:38:46;;;;;;;10.67;6.73;;;;;;;;;;5021589;28;20455;-89
2023/04/05 08:41:15;;;;;;;8.23;6.60;;;;;;;;;;5000803;28;20435;-88
2023/04/05 08:43:51;;;;;;;9.83;6.23;;;;;;;;;;5019386;28;21065;-89
2023/04/05 08:46:17;;;;;;;9.20;6.87;;;;;;;;;;5012123;28;20420;-89
2023/04/05 08:48:43;;;;;;;7.10;5.30;;;;;;;;;;5006672;28;20465;-89
2023/04/05 08:51:09;;;;;;;8.17;5.43;;;;;;;;;;5003555;28;20463;-88
2023/04/05 08:53:35;;;;;;;6.90;6.23;;;;;;;;;;5016346;28;20440;-89
2023/04/05 08:56:01;;;;;;;8.13;4.60;;;;;;;;;;5001304;28;20769;-89
2023/04/05 08:58:27;;;;;;;8.40;5.67;;;;;;;;;;5020920;28;20502;-89
2023/04/05 09:00:53;;;;;;;6.57;4.47;;;;;;;;;;5019910;28;20915;-88
2023/04/05 09:03:21;;;;;;;8.83;5.07;;;;;;;;;;5007891;28;20515;-88
2023/04/05 09:05:51;;;;;;;6.90;5.27;;;;;;;;;;5006817;28;20483;-89
2023/04/05 09:08:17;;;;;;;5.23;4.73;;;;;;;;;;5003991;28;20436;-88
2023/04/05 09:10:43;;;;;;;4.77;4.37;;;;;;;;;;4984912;28;20459;-88
2023/04/05 09:13:09;;;;;;;4.50;3.73;;;;;;;;;;4986251;28;20530;-89
2023/04/05 09:15:38;;;;;;;6.97;4.43;;;;;;;;;;5002054;28;20432;-89
2023/04/05 09:18:04;;;;;;;5.40;3.63;;;;;;;;;;5005892;28;20483;-89
2023/04/05 09:20:30;;;;;;;4.40;3.70;;;;;;;;;;4978382;28;20493;-88
2023/04/05 09:22:56;;;;;;;4.40;4.00;;;;;;;;;;4988214;28;20431;-89
2023/04/05 09:25:31;;;;;;;4.37;3.97;;;;;;;;;;5003117;28;20469;-89
2023/04/05 09:28:02;;;;;;;5.03;4.50;;;;;;;;;;5027553;28;20415;-90
2023/04/05 09:30:27;;;;;;;7.13;4.50;;;;;;;;;;4986806;28;20466;-90
2023/04/05 09:32:54;;;;;;;4.93;4.50;;;;;;;;;;4997829;28;20429;-90
2023/04/05 09:35:24;;;;;;;6.50;4.37;;;;;;;;;;4985444;28;20530;-91
2023/04/05 09:37:52;;;;;;;6.80;5.37;;;;;;;;;;4997784;28;20434;-90
2023/04/05 09:40:18;;;;;;;8.67;4.90;;;;;;;;;;5016797;28;20794;-89
2023/04/05 09:42:46;;;;;;;7.37;3.67;;;;;;;;;;5026241;28;20442;-90
2023/04/05 09:45:13;;;;;;;5.13;4.07;;;;;;;;;;5010622;28;20428;-91
2023/04/05 09:47:40;;;;;;;5.00;3.70;;;;;;;;;;5004584;28;20434;-90
2023/04/05 09:50:15;;;;;;;4.70;4.23;;;;;;;;;;5030368;28;20416;-91
2023/04/05 09:52:42;;;;;;;6.87;4.37;;;;;;;;;;5025513;28;20659;-92
2023/04/05 09:55:08;;;;;;;5.77;4.47;;;;;;;;;;5017951;28;20419;-90
2023/04/05 09:57:35;;;;;;;6.30;4.10;;;;;;;;;;5021877;28;20936;-91
2023/04/05 10:00:01;;;;;;;7.03;5.63;;;;;;;;;;5020055;28;20447;-91
2023/04/05 10:02:36;;;;;;;5.40;4.90;;;;;;;;;;5028485;28;20518;-91
2023/04/05 10:05:05;;;;;;;6.40;4.60;;;;;;;;;;5023107;28;20427;-92
2023/04/05 10:07:31;;;;;;;5.00;4.10;;;;;;;;;;5003797;28;20432;-91
2023/04/05 10:09:57;;;;;;;5.67;5.17;;;;;;;;;;5004158;28;20458;-92
2023/04/05 10:12:27;;;;;;;5.60;4.93;;;;;;;;;;5020876;28;20914;-92
2023/04/05 10:14:53;;;;;;;6.13;5.23;;;;;;;;;;5005074;28;20439;-91
2023/04/05 10:17:38;;;;;;;5.77;5.13;;;;;;;;;;5001036;28;20424;-91
2023/04/05 10:20:10;;;;;;;6.03;4.57;;;;;;;;;;5016333;28;20442;-91
2023/04/05 10:22:56;;;;;;;7.30;4.63;;;;;;;;;;5025487;28;20490;-93
2023/04/05 10:25:41;;;;;;;4.60;4.10;;;;;;;;;;5019812;28;20420;-93
2023/04/05 10:28:10;;;;;;;6.37;5.70;;;;;;;;;;5022829;28;20438;-93
2023/04/05 10:30:39;;;;;;;5.03;4.40;;;;;;;;;;5013141;28;20490;-95
2023/04/05 10:33:21;;;;;;;4.83;4.43;;;;;;;;;;5022539;28;20570;-93
2023/04/05 10:35:53;;;;;;;8.40;5.20;;;;;;;;;;5017640;28;20443;-92
2023/04/05 10:38:26;;;;;;;6.60;5.20;;;;;;;;;;5038249;28;20435;-93
2023/04/05 10:41:02;;;;;;;5.57;4.60;;;;;;;;;;5030824;28;20471;-93
2023/04/05 10:43:31;;;;;;;7.70;4.30;;;;;;;;;;5044977;28;20446;-90
2023/04/05 10:45:57;;;;;;;5.30;4.80;;;;;;;;;;5023521;28;20448;-91
2023/04/05 10:48:26;;;;;;;7.33;5.03;;;;;;;;;;5008464;28;20420;-92
2023/04/05 10:50:52;;;;;;;6.23;5.60;;;;;;;;;;5028728;28;20452;-94
2023/04/05 10:53:18;;;;;;;5.57;5.07;;;;;;;;;;5030767;28;20448;-93
2023/04/05 10:55:44;;;;;;;6.10;5.50;;;;;;;;;;5014464;28;20420;-92
2023/04/05 10:58:10;;;;;;;9.40;5.43;;;;;;;;;;5029828;28;20440;-87
2023/04/05 11:00:40;;;;;;;6.10;4.97;;;;;;;;;;5013630;28;20428;-93
2023/04/05 11:03:07;;;;;;;5.77;5.00;;;;;;;;;;5045246;28;20488;-93
2023/04/05 11:05:39;;;;;;;5.30;4.70;;;;;;;;;;5012586;28;20427;-93
2023/04/05 11:08:08;;;;;;;5.40;4.60;;;;;;;;;;5027308;28;20432;-92
2023/04/05 11:10:37;;;;;;;6.50;4.87;;;;;;;;;;5012557;28;20459;-93
2023/04/05 11:13:04;;;;;;;5.53;4.90;;;;;;;;;;5002294;28;20436;-89
2023/04/05 11:15:33;;;;;;;6.27;5.50;;;;;;;;;;5022918;28;20427;-91
2023/04/05 11:18:17;;;;;;;4.30;3.90;;;;;;;;;;5021987;28;20527;-88
2023/04/05 11:20:47;;;;;;;4.93;4.43;;;;;;;;;;5030138;28;21329;-91
2023/04/05 11:23:17;;;;;;;8.00;5.53;;;;;;;;;;5005304;28;20440;-91
2023/04/05 11:25:47;;;;;;;9.80;5.03;;;;;;;;;;5018242;28;20438;-90
2023/04/05 11:28:29;;;;;;;9.10;6.10;;;;;;;;;;5020691;28;20453;-91
2023/04/05 11:30:58;;;;;;;5.77;5.17;;;;;;;;;;5020500;28;21053;-92
2023/04/05 11:33:37;;;;;;;6.90;5.67;;;;;;;;;;5022763;28;20428;-91
2023/04/05 11:36:03;;;;;;;5.57;5.10;;;;;;;;;;5026125;28;20442;-90
2023/04/05 11:38:29;;;;;;;6.83;4.50;;;;;;;;;;5021124;28;20492;-91
2023/04/05 11:41:11;;;;;;;9.20;4.83;;;;;;;;;;5001245;28;20701;-92
2023/04/05 11:43:37;;;;;;;6.27;5.13;;;;;;;;;;5010936;28;20420;-89
2023/04/05 11:46:05;;;;;;;6.87;5.87;;;;;;;;;;5020741;28;20431;-91
2023/04/05 11:48:31;;;;;;;8.30;4.67;;;;;;;;;;5007806;28;20432;-94
2023/04/05 11:50:57;;;;;;;7.00;5.27;;;;;;;;;;5027207;28;20463;-93
2023/04/05 11:53:24;;;;;;;5.30;4.80;;;;;;;;;;5008663;28;20462;-92
2023/04/05 11:55:51;;;;;;;6.30;5.00;;;;;;;;;;5007757;28;20432;-90
2023/04/05 11:58:24;;;;;;;6.60;4.80;;;;;;;;;;5013171;28;20444;-91
2023/04/05 12:00:57;;;;;;;8.00;5.13;;;;;;;;;;5027928;28;20958;-91
2023/04/05 12:03:23;;;;;;;5.63;5.13;;;;;;;;;;5021698;28;20429;-92
2023/04/05 12:05:54;;;;;;;6.57;4.60;;;;;;;;;;5046937;28;20447;-93
2023/04/05 12:08:20;;;;;;;5.37;4.87;;;;;;;;;;5032519;28;20963;-92
2023/04/05 12:10:56;;;;;;;7.50;5.00;;;;;;;;;;5027061;28;20486;-93
2023/04/05 12:13:26;;;;;;;7.63;4.50;;;;;;;;;;5027111;28;20463;-91
2023/04/05 12:15:52;;;;;;;7.50;5.80;;;;;;;;;;5017108;28;20517;-93
2023/04/05 12:18:21;;;;;;;10.17;5.80;;;;;;;;;;5034278;28;20458;-94
2023/04/05 12:20:47;;;;;;;6.80;6.10;;;;;;;;;;4999623;28;20886;-91
2023/04/05 12:23:14;;;;;;;6.53;5.90;;;;;;;;;;5019099;28;20420;-93
2023/04/05 12:25:41;;;;;;;5.60;5.17;;;;;;;;;;5021328;28;20436;-90
2023/04/05 12:28:07;;;;;;;6.43;5.70;;;;;;;;;;5004480;28;20467;-90
2023/04/05 12:30:36;;;;;;;6.80;6.20;;;;;;;;;;5012149;28;20427;-90
2023/04/05 12:33:09;;;;;;;6.47;5.80;;;;;;;;;;5049934;28;20423;-90
2023/04/05 12:35:35;;;;;;;8.83;7.40;;;;;;;;;;5023307;28;20494;-91
2023/04/05 12:38:04;;;;;;;7.83;6.23;;;;;;;;;;5011422;28;20433;-92
2023/04/05 12:40:33;;;;;;;7.93;6.70;;;;;;;;;;5009266;28;20502;-91
2023/04/05 12:43:03;;;;;;;7.53;6.80;;;;;;;;;;5002598;28;20448;-93
2023/04/05 12:45:33;;;;;;;6.97;6.30;;;;;;;;;;5012481;28;20417;-91
2023/04/05 12:48:02;;;;;;;7.43;6.67;;;;;;;;;;5006987;28;20430;-89
2023/04/05 12:50:29;;;;;;;7.33;6.60;;;;;;;;;;5014071;28;20449;-92
2023/04/05 12:52:58;;;;;;;9.07;7.30;;;;;;;;;;5020333;28;20444;-92
2023/04/05 12:55:25;;;;;;;8.13;6.40;;;;;;;;;;5041885;28;20507;-92
2023/04/05 12:57:58;;;;;;;7.03;6.33;;;;;;;;;;5022971;28;20423;-93
2023/04/05 13:00:25;;;;;;;8.63;7.07;;;;;;;;;;5007065;28;20429;-93
2023/04/05 13:02:52;;;;;;;7.10;6.50;;;;;;;;;;5027006;28;20436;-87
2023/04/05 13:05:21;;;;;;;6.83;6.07;;;;;;;;;;5016260;28;20423;-85
2023/04/05 13:07:47;;;;;;;7.03;6.33;;;;;;;;;;5016622;28;20442;-86
2023/04/05 13:10:13;;;;;;;6.97;6.30;;;;;;;;;;5016218;28;20431;-87
2023/04/05 13:12:39;;;;;;;8.63;7.10;;;;;;;;;;5019281;28;20926;-86
2023/04/05 13:15:06;;;;;;;9.50;6.90;;;;;;;;;;5017302;28;20443;-86
2023/04/05 13:17:32;;;;;;;6.70;5.80;;;;;;;;;;4994145;28;21132;-90
2023/04/05 13:19:58;;;;;;;6.80;6.10;;;;;;;;;;5010240;28;20451;-85
2023/04/05 13:22:24;;;;;;;7.73;7.00;;;;;;;;;;4996784;28;20491;-89
2023/04/05 13:24:51;;;;;;;6.97;6.37;;;;;;;;;;5006737;28;20435;-92
2023/04/05 13:27:17;;;;;;;7.80;7.10;;;;;;;;;;5021107;28;20421;-92
2023/04/05 13:29:43;;;;;;;11.33;6.97;;;;;;;;;;5000811;28;20432;-92
2023/04/05 13:32:09;;;;;;;6.90;6.30;;;;;;;;;;5001339;28;20963;-92
2023/04/05 13:34:35;;;;;;;9.00;6.90;;;;;;;;;;4999593;28;20464;-91
2023/04/05 13:37:01;;;;;;;7.53;6.83;;;;;;;;;;5002204;28;20563;-91
2023/04/05 13:39:26;;;;;;;7.57;6.90;;;;;;;;;;4996573;28;20432;-91
2023/04/05 13:41:52;;;;;;;5.50;5.00;;;;;;;;;;4993837;28;20471;-92
2023/04/05 13:44:18;;;;;;;6.70;6.00;;;;;;;;;;5002266;28;20448;-92
2023/04/05 13:46:44;;;;;;;4.73;4.33;;;;;;;;;;5014894;28;20467;-91
2023/04/05 13:49:11;;;;;;;5.50;5.00;;;;;;;;;;5019988;28;20959;-91
2023/04/05 13:51:40;;;;;;;6.50;4.73;;;;;;;;;;5000369;28;20519;-90
2023/04/05 13:54:06;;;;;;;5.80;5.30;;;;;;;;;;5000420;28;21186;-88
2023/04/05 13:56:32;;;;;;;6.13;4.77;;;;;;;;;;4999679;28;20443;-93
2023/04/05 13:58:58;;;;;;;4.90;4.50;;;;;;;;;;5019526;28;20424;-91
2023/04/05 14:01:24;;;;;;;4.70;3.90;;;;;;;;;;5001025;28;20511;-91
2023/04/05 14:03:50;;;;;;;4.83;4.40;;;;;;;;;;4996230;28;20512;-91
2023/04/05 14:06:16;;;;;;;4.43;4.03;;;;;;;;;;4999554;28;20466;-91
2023/04/05 14:08:42;;;;;;;5.00;4.60;;;;;;;;;;5016551;28;20451;-91
2023/04/05 14:11:08;;;;;;;6.57;5.57;;;;;;;;;;5012663;28;20436;-88
2023/04/05 14:13:34;;;;;;;5.70;4.80;;;;;;;;;;4994927;28;20475;-91
2023/04/05 14:16:00;;;;;;;6.50;4.47;;;;;;;;;;5013554;28;20430;-90
2023/04/05 14:18:26;;;;;;;5.83;4.43;;;;;;;;;;5004315;28;20974;-92
2023/04/05 14:20:55;;;;;;;5.73;5.17;;;;;;;;;;5002835;28;20483;-91
2023/04/05 14:23:25;;;;;;;5.47;4.70;;;;;;;;;;5004884;28;20936;-93
2023/04/05 14:25:52;;;;;;;6.00;4.47;;;;;;;;;;5019141;28;20443;-92
2023/04/05 14:28:18;;;;;;;8.87;4.97;;;;;;;;;;5020578;28;20440;-92
2023/04/05 14:30:44;;;;;;;5.40;4.67;;;;;;;;;;5003551;28;20424;-91
2023/04/05 14:33:13;;;;;;;7.10;5.07;;;;;;;;;;5003627;28;20428;-91
2023/04/05 14:35:39;;;;;;;5.43;4.80;;;;;;;;;;5004098;28;20468;-91
2023/04/05 14:38:05;;;;;;;5.30;4.80;;;;;;;;;;5034782;28;20441;-90
2023/04/05 14:40:31;;;;;;;6.50;4.63;;;;;;;;;;5005232;28;20516;-92
2023/04/05 14:42:58;;;;;;;5.00;4.07;;;;;;;;;;5016919;28;20468;-91